Latest Coastal Weather Observations for Rottnest Island

IDW60701

Issued at 11:02 am WST Tuesday 25 June 2024 (issued every 10 minutes, with the page automatically refreshed every 10 minutes)

About coastal observations | Map of coastal stations | Coastal observations for WA | Marine services | Other Formats
Station Details ID: 009193 Name: ROTTNEST ISLAND Lat: -32.01 Lon: 115.50 Height: 43.1 m
Data from the previous 72 hours. | See also: Recent months at Rottnest Island
Date/Time
WST
Wind Sea
Height
m
Swell Vis
km
Cloud Weather Temp
°C
Press
MSL
hPa
Rain since
9am
mm
Dir  Spd
kts
Gust
kts
Height
m
Period
s
Dir
25/11:00am ENE 12 17 - - - - - - - 14.3 1017.2 0.0
25/10:30am ENE 10 15 - - - - - - - 14.2 1017.4 0.0
25/10:00am NE 11 15 - - - - - - - 12.8 1018.0 0.0
25/09:30am NE 11 14 - - - - - - - 12.7 1018.1 0.0
25/09:00am ENE 12 17 - - - - - - - 12.3 1018.0 0.2
25/08:30am ENE 12 16 - - - - - - - 11.7 1017.9 0.2
25/08:00am ENE 12 18 - - - - - - - 11.3 1017.8 0.2
25/07:30am ENE 11 16 - - - - - - - 10.9 1018.1 0.2
25/07:00am ENE 10 13 - - - - - - - 10.5 1018.2 0.2
25/06:30am E 8 11 - - - - - - - 10.3 1018.4 0.2
25/06:00am E 9 11 - - - - - - - 10.2 1018.2 0.2
25/05:30am E 7 8 - - - - - - - 10.6 1018.6 0.2
25/05:00am E 8 10 - - - - - - - 10.3 1018.7 0.2
25/04:30am E 6 8 - - - - - - - 10.9 1018.9 0.2
25/04:00am E 9 13 - - - - - - - 11.3 1019.0 0.2
25/03:30am E 9 12 - - - - - - - 11.3 1019.3 0.2
25/03:00am ESE 9 12 - - - - - - - 12.1 1019.4 0.2
25/02:30am ESE 8 10 - - - - - - - 12.2 1019.8 0.2
25/02:00am E 8 10 - - - - - - - 12.6 1020.0 0.2
25/01:30am E 8 10 - - - - - - - 12.7 1020.1 0.2
25/01:00am E 9 11 - - - - - - - 12.7 1020.4 0.2
25/12:30am E 8 11 - - - - - - - 12.5 1020.8 0.2
25/12:00am E 8 10 - - - - - - - 12.6 1021.3 0.2
 
Date/Time
WST
Wind Sea
Height
m
Swell Vis
km
Cloud Weather Temp
°C
Press
MSL
hPa
Rain since
9am
mm
Dir  Spd
kts
Gust
kts
Height
m
Period
s
Dir
24/11:30pm E 9 12 - - - - - - - 13.1 1021.6 0.2
24/11:00pm E 10 14 - - - - - - - 13.2 1021.9 0.2
24/10:30pm E 9 12 - - - - - - - 13.2 1022.2 0.2
24/10:00pm E 10 14 - - - - - - - 13.5 1022.3 0.2
24/09:30pm ESE 9 14 - - - - - - - 13.6 1022.3 0.2
24/09:00pm ESE 8 15 - - - - - - - 13.9 1022.3 0.2
24/08:30pm ESE 7 9 - - - - - - - 13.8 1022.5 0.2
24/08:00pm SE 7 11 - - - - - - - 14.2 1022.5 0.2
24/07:30pm SSE 8 12 - - - - - - - 14.5 1022.5 0.2
24/07:00pm SSE 10 15 - - - - - - - 14.7 1022.4 0.2
24/06:30pm SSE 9 11 - - - - - - - 14.3 1022.4 0.2
24/06:00pm SSE 11 15 - - - - - - - 14.5 1022.4 0.2
24/05:30pm S 10 14 - - - - - - - 14.4 1022.6 0.2
24/05:00pm SSE 12 16 - - - - - - - 14.9 1022.6 0.2
24/04:30pm SSE 10 14 - - - - - - - 14.9 1022.8 0.2
24/04:00pm SSE 11 14 - - - - - - - 15.6 1022.9 0.2
24/03:30pm S 9 14 - - - - - - - 15.4 1023.3 0.2
24/03:00pm S 9 12 - - - - - - - 15.4 1023.3 0.2
24/02:30pm S 10 13 - - - - - - - 15.3 1023.4 0.2
24/02:00pm SSE 9 11 - - - - - - - 15.2 1023.6 0.2
24/01:30pm SSE 7 11 - - - - - - - 15.0 1023.8 0.2
24/01:00pm SSE 7 11 - - - - - - - 15.0 1024.0 0.2
24/12:30pm SE 8 11 - - - - - - - 14.8 1024.5 0.0
24/12:00pm SE 9 14 - - - - - - - 14.9 1025.0 0.0
24/11:30am SE 8 13 - - - - - - - 14.7 1025.6 0.0
24/11:00am SE 8 12 - - - - - - - 14.1 1026.2 0.0
24/10:30am SE 7 11 - - - - - - - 14.7 1026.5 0.0
24/10:00am SE 8 11 - - - - - - - 14.3 1026.6 0.0
24/09:30am SE 9 13 - - - - - - - 14.3 1026.6 0.0
24/09:00am ESE 7 11 - - - - - - - 14.2 1026.5 0.0
24/08:30am ESE 7 11 - - - - - - - 13.6 1026.4 0.0
24/08:00am ESE 6 9 - - - - - - - 12.9 1026.3 0.0
24/07:30am ESE 7 9 - - - - - - - 12.6 1026.3 0.0
24/07:00am ESE 8 11 - - - - - - - 12.8 1026.1 0.0
24/06:30am SE 8 12 - - - - - - - 13.1 1025.9 0.0
24/06:00am SE 10 14 - - - - - - - 13.5 1025.7 0.0
24/05:30am SE 10 14 - - - - - - - 13.5 1025.5 0.0
24/05:00am SE 10 14 - - - - - - - 13.4 1025.6 0.0
24/04:30am SE 11 16 - - - - - - - 13.4 1025.8 0.0
24/04:00am SE 12 16 - - - - - - - 13.7 1025.9 0.0
24/03:30am SSE 12 16 - - - - - - - 13.7 1026.1 0.0
24/03:00am SE 11 15 - - - - - - - 13.8 1026.3 0.0
24/02:30am SE 8 12 - - - - - - - 13.4 1026.4 0.0
24/02:00am SE 11 13 - - - - - - - 13.8 1026.5 0.0
24/01:30am SE 11 15 - - - - - - - 14.1 1026.6 0.0
24/01:00am SE 9 13 - - - - - - - 13.9 1026.7 0.0
24/12:30am SE 10 14 - - - - - - - 13.9 1027.0 0.0
24/12:00am SE 11 15 - - - - - - - 14.2 1027.2 0.0
 
Date/Time
WST
Wind Sea
Height
m
Swell Vis
km
Cloud Weather Temp
°C
Press
MSL
hPa
Rain since
9am
mm
Dir  Spd
kts
Gust
kts
Height
m
Period
s
Dir
23/11:30pm SE 11 15 - - - - - - - 14.2 1027.3 0.0
23/11:00pm SE 14 18 - - - - - - - 14.7 1027.1 0.0
23/10:30pm SSE 13 17 - - - - - - - 15.1 1027.2 0.0
23/10:00pm SSE 15 22 - - - - - - - 15.2 1027.1 0.0
23/09:30pm SE 13 17 - - - - - - - 15.0 1027.1 0.0
23/09:00pm SE 13 17 - - - - - - - 15.1 1027.3 0.0
23/08:30pm SSE 16 20 - - - - - - - 15.6 1027.2 0.0
23/08:00pm SSE 13 17 - - - - - - - 15.5 1027.1 0.0
23/07:30pm SSE 15 21 - - - - - - - 15.5 1026.8 0.0
23/07:00pm SSE 15 21 - - - - - - - 15.5 1026.8 0.0
23/06:30pm SSE 15 20 - - - - - - - 15.7 1026.4 0.0
23/06:00pm SSE 16 20 - - - - - - - 15.4 1026.4 0.0
23/05:30pm S 15 20 - - - - - - - 15.4 1026.3 0.0
23/05:00pm SSE 15 20 - - - - - - - 15.5 1026.2 0.0
23/04:30pm SSE 13 16 - - - - - - - 15.5 1026.3 0.0
23/04:00pm S 16 21 - - - - - - - 15.7 1026.2 0.0
23/03:30pm SSE 12 16 - - - - - - - 15.8 1026.2 0.0
23/03:00pm SSE 13 16 - - - - - - - 15.9 1026.1 0.0
23/02:30pm SSE 14 18 - - - - - - - 15.4 1026.1 0.0
23/02:00pm SSE 13 18 - - - - - - - 15.9 1026.2 0.0
23/01:30pm SSE 14 18 - - - - - - - 15.5 1026.4 0.0
23/01:00pm SSE 13 18 - - - - - - - 15.7 1026.5 0.0
23/12:30pm SSE 14 20 - - - - - - - 15.0 1026.8 0.0
23/12:00pm SSE 11 16 - - - - - - - 15.4 1027.2 0.0
23/11:30am SE 11 15 - - - - - - - 14.8 1027.5 0.0
23/11:00am SE 10 13 - - - - - - - 14.4 1027.7 0.0
23/10:30am SE 7 14 - - - - - - - 14.6 1027.7 0.0
23/10:00am E 8 11 - - - - - - - 15.6 1027.5 0.0
23/09:30am E 6 8 - - - - - - - 14.2 1027.3 0.0
23/09:00am ENE 4 6 - - - - - - - 14.3 1026.9 0.4
23/08:30am ESE 6 7 - - - - - - - 13.2 1026.8 0.4
23/08:00am NE 8 10 - - - - - - - 12.9 1026.4 0.4
23/07:30am E 7 10 - - - - - - - 13.1 1026.3 0.2
23/07:00am NE 6 7 - - - - - - - 12.8 1025.8 0.2
23/06:30am E 6 8 - - - - - - - 12.8 1025.8 0.2
23/06:00am SE 9 17 - - - - - - - 13.5 1025.7 0.2
23/05:30am ESE 7 9 - - - - - - - 14.1 1025.2 0.2
23/05:00am ESE 7 10 - - - - - - - 14.1 1024.9 0.2
23/04:30am SE 9 12 - - - - - - - 15.0 1024.8 0.2
23/04:00am SSW 15 19 - - - - - - - 15.9 1024.7 0.2
23/03:30am SSW 14 18 - - - - - - - 15.8 1024.7 0.2
23/03:00am SSW 16 20 - - - - - - - 16.0 1024.7 0.2
23/02:30am SSW 15 22 - - - - - - - 15.9 1024.9 0.2
23/02:00am SW 18 24 - - - - - - - 14.5 1025.1 0.2
23/01:30am SSW 15 22 - - - - - - - 16.5 1024.6 0.2
23/01:00am SSW 13 21 - - - - - - - 16.6 1024.6 0.2
23/12:30am SSW 16 19 - - - - - - - 16.3 1024.6 0.2
23/12:00am SSW 14 18 - - - - - - - 16.3 1024.5 0.2
 
Date/Time
WST
Wind Sea
Height
m
Swell Vis
km
Cloud Weather Temp
°C
Press
MSL
hPa
Rain since
9am
mm
Dir  Spd
kts
Gust
kts
Height
m
Period
s
Dir
22/11:30pm SW 10 15 - - - - - - - 15.4 1024.7 0.2
22/11:00pm SSW 14 20 - - - - - - - 16.5 1024.5 0.2
22/10:30pm SSW 16 20 - - - - - - - 16.4 1024.5 0.2
22/10:00pm SSW 14 16 - - - - - - - 16.5 1024.3 0.2
22/09:30pm SSW 15 19 - - - - - - - 16.2 1024.2 0.2
22/09:00pm SSW 12 17 - - - - - - - 16.4 1023.9 0.2
22/08:30pm SW 14 21 - - - - - - - 16.2 1023.8 0.2
22/08:00pm SSW 16 21 - - - - - - - 16.3 1023.5 0.2
22/07:30pm SSW 15 20 - - - - - - - 16.1 1023.2 0.2
22/07:00pm S 19 24 - - - - - - - 16.2 1022.7 0.2
22/06:30pm SSW 16 22 - - - - - - - 16.2 1022.5 0.2
22/06:00pm SSW 17 21 - - - - - - - 16.1 1022.1 0.2
22/05:30pm SSW 15 21 - - - - - - - 16.1 1021.6 0.2
22/05:16pm SSW 20 30 - - - - - - - 14.8 1021.8 0.2
22/05:00pm SSW 18 24 - - - - - - - 16.5 1021.3 0.2
22/04:30pm SSW 17 23 - - - - - - - 16.4 1021.2 0.2
22/04:12pm SSW 17 27 - - - - - - - 16.6 1020.9 0.2
22/04:00pm SSW 17 23 - - - - - - - 17.0 1020.9 0.2
22/03:30pm SSW 20 24 - - - - - - - 17.2 1020.8 0.2
22/03:00pm SSW 19 24 - - - - - - - 17.2 1020.4 0.2
22/02:30pm SSW 19 26 - - - - - - - 16.8 1020.1 0.2
22/02:00pm SSW 19 23 - - - - - - - 16.5 1020.3 0.2
22/01:30pm SSW 21 26 - - - - - - - 15.0 1020.4 0.2
22/01:19pm SSW 22 34 - - - - - - - 14.3 1020.3 0.2
22/01:00pm SW 26 36 - - - - - - - 15.7 1020.7 0.0
22/12:55pm SSW 23 33 - - - - - - - 16.7 1020.4 0.0
22/12:30pm SSW 24 30 - - - - - - - 16.8 1020.4 0.0
22/12:24pm SSW 25 31 - - - - - - - 16.9 1020.0 0.0
22/12:00pm SW 22 31 - - - - - - - 18.7 1020.5 0.0
22/11:30am SW 20 24 - - - - - - - 17.8 1020.8 0.0

Other formats

Comma delimited format used in spreadsheet applications
http://www.bom.gov.au/fwo/IDW60701/IDW60701.94602.axf

JavaScript Object Notation format (JSON) in row-major order
http://www.bom.gov.au/fwo/IDW60701/IDW60701.94602.json

Data quality

Most of these data are generated automatically and are frequently updated. Quality checks on data are not normally performed. It is possible for incorrect values to appear. Refer to information at About Latest Weather Observations and please check the disclaimer before using these data.